createdAt,value
2022-10-25T00:00:58.420Z,17822.63
2022-10-25T00:03:27.753Z,17859.19
2022-10-25T00:05:55.741Z,17832.78
2022-10-25T00:08:23.705Z,17806.38
2022-10-25T00:10:51.667Z,17796.22
2022-10-25T00:13:19.691Z,17834.81
2022-10-25T00:15:47.702Z,17820.59
2022-10-25T00:18:15.686Z,17794.19
2022-10-25T00:20:46.740Z,17790.13
2022-10-25T00:23:14.932Z,17790.13
2022-10-25T00:25:44.594Z,17804.34
2022-10-25T00:28:12.697Z,17798.25
2022-10-25T00:30:40.678Z,17794.19
2022-10-25T00:33:08.641Z,17773.88
2022-10-25T00:35:37.710Z,17775.91
2022-10-25T00:38:07.007Z,17729.19
2022-10-25T00:40:35.154Z,17753.56
2022-10-25T00:43:03.121Z,17753.56
2022-10-25T00:45:31.254Z,17737.31
2022-10-25T00:48:05.434Z,17725.13
2022-10-25T00:50:49.026Z,17694.66
2022-10-25T00:53:23.855Z,17700.75
2022-10-25T00:56:00.210Z,17680.44
2022-10-25T00:58:34.908Z,17680.44
2022-10-25T01:01:08.191Z,17664.19
2022-10-25T01:03:40.529Z,17698.72
2022-10-25T01:06:18.763Z,17627.63
2022-10-25T01:08:50.983Z,17631.69
2022-10-25T01:11:20.841Z,17658.09
2022-10-25T01:13:50.193Z,17627.63
2022-10-25T01:16:28.335Z,17625.59
2022-10-25T01:19:17.353Z,17635.75
2022-10-25T01:21:50.751Z,17605.28
2022-10-25T01:24:58.980Z,17587.00
2022-10-25T01:28:02.149Z,17532.16
2022-10-25T01:31:12.889Z,17522.00
2022-10-25T01:33:47.986Z,17530.13
2022-10-25T01:36:27.151Z,17519.97
2022-10-25T01:39:09.912Z,17497.63
2022-10-25T01:41:50.310Z,17501.69
2022-10-25T01:47:12.214Z,17455.00
2022-10-25T01:49:48.106Z,17422.50
2022-10-25T01:52:19.372Z,17408.28
2022-10-25T01:54:47.330Z,17414.38
2022-10-25T01:57:44.444Z,17392.03
2022-10-25T02:00:17.818Z,17379.84
2022-10-25T02:03:15.062Z,17355.47
2022-10-25T02:06:01.946Z,17308.75
2022-10-25T02:08:40.968Z,17335.16
2022-10-25T02:11:22.267Z,17286.41
2022-10-25T02:14:03.981Z,17274.22
2022-10-25T02:16:39.155Z,17227.50
2022-10-25T02:19:14.596Z,17217.34
2022-10-25T02:21:46.342Z,17190.94
2022-10-25T02:24:19.105Z,17225.47
2022-10-25T02:26:50.870Z,17192.97
2022-10-25T02:29:22.138Z,17168.59
2022-10-25T02:31:50.340Z,17184.84
2022-10-25T02:34:20.784Z,17207.19
2022-10-25T02:36:50.104Z,17150.31
2022-10-25T02:39:19.461Z,17182.81
2022-10-25T02:41:47.439Z,17160.47
2022-10-25T02:44:15.531Z,17201.09
2022-10-25T02:46:43.855Z,17125.97
2022-10-25T02:49:12.007Z,17170.63
2022-10-25T02:51:41.385Z,17136.13
2022-10-25T02:54:09.389Z,17138.16
2022-10-25T02:56:38.662Z,17113.78
2022-10-25T02:59:06.658Z,17087.38
2022-10-25T03:01:34.774Z,17105.66
2022-10-25T03:04:02.819Z,17046.75
2022-10-25T03:06:30.957Z,17056.91
2022-10-25T03:09:00.292Z,17054.88
2022-10-25T03:11:28.422Z,17042.69
2022-10-25T03:13:56.441Z,17034.56
2022-10-25T03:16:24.409Z,17006.13
2022-10-25T03:18:52.446Z,16993.94
2022-10-25T03:21:20.398Z,16953.34
2022-10-25T03:23:48.361Z,16928.97
2022-10-25T03:26:17.677Z,16888.34
2022-10-25T03:28:45.671Z,16918.81
2022-10-25T03:31:16.631Z,16874.13
2022-10-25T03:33:45.072Z,16855.84
2022-10-25T03:36:13.016Z,16821.31
2022-10-25T03:38:41.394Z,16819.28
2022-10-25T03:41:09.550Z,16809.13
2022-10-25T03:43:39.013Z,16813.19
2022-10-25T03:46:07.375Z,16782.75
2022-10-25T03:48:35.327Z,16734.00
2022-10-25T03:51:03.344Z,16695.41
2022-10-25T03:53:31.353Z,16695.41
2022-10-25T03:55:59.333Z,16709.63
2022-10-25T03:58:27.329Z,16673.09
2022-10-25T04:00:56.689Z,16671.06
2022-10-25T04:03:24.836Z,16648.72
2022-10-25T04:05:52.805Z,16620.28
2022-10-25T04:08:20.759Z,16630.44
2022-10-25T04:10:48.807Z,16610.13
2022-10-25T04:13:16.900Z,16606.06
2022-10-25T04:15:44.980Z,16579.66
2022-10-25T04:18:14.298Z,16593.88
2022-10-25T04:20:42.268Z,16569.50
2022-10-25T04:23:10.226Z,16575.59
2022-10-25T04:25:38.313Z,16585.75
2022-10-25T04:28:06.387Z,16573.56
2022-10-25T04:30:36.640Z,16541.09
2022-10-25T04:33:06.757Z,16575.59
2022-10-25T04:35:36.238Z,16543.13
2022-10-25T04:38:04.258Z,16535.00
2022-10-25T04:40:32.273Z,16520.78
2022-10-25T04:43:02.310Z,16555.31
2022-10-25T04:45:30.898Z,16524.84
2022-10-25T04:47:58.904Z,16516.72
2022-10-25T04:50:26.867Z,16502.50
2022-10-25T04:52:56.194Z,16502.50
2022-10-25T04:55:24.137Z,16498.44
2022-10-25T04:57:53.104Z,16496.41
2022-10-25T05:00:21.156Z,16524.84
2022-10-25T05:02:49.438Z,16490.31
2022-10-25T05:05:17.808Z,16459.88
2022-10-25T05:07:45.807Z,16472.03
2022-10-25T05:10:15.198Z,16441.59
2022-10-25T05:12:43.453Z,16484.22
2022-10-25T05:15:12.295Z,16482.19
2022-10-25T05:17:40.256Z,16425.34
2022-10-25T05:20:09.387Z,16435.50
2022-10-25T05:22:37.358Z,16463.91
2022-10-25T05:25:06.433Z,16461.91
2022-10-25T05:27:39.355Z,16453.78
2022-10-25T05:30:09.019Z,16494.38
2022-10-25T05:32:37.232Z,16518.75
2022-10-25T05:35:06.330Z,16547.19
2022-10-25T05:37:34.318Z,16553.28
2022-10-25T05:40:02.291Z,16557.34
2022-10-25T05:42:30.262Z,16577.63
2022-10-25T05:44:59.594Z,16573.56
2022-10-25T05:47:27.582Z,16634.50
2022-10-25T05:49:55.528Z,16599.97
2022-10-25T05:52:23.522Z,16616.22
2022-10-25T05:54:51.488Z,16604.03
2022-10-25T05:57:20.435Z,16595.91
2022-10-25T05:59:48.417Z,16599.97
2022-10-25T06:02:17.953Z,16583.72
2022-10-25T06:04:50.127Z,16606.06
2022-10-25T06:07:19.663Z,16604.03
2022-10-25T06:09:47.568Z,16612.16
2022-10-25T06:12:15.602Z,16654.81
2022-10-25T06:14:43.588Z,16709.63
2022-10-25T06:17:13.088Z,16782.75
2022-10-25T06:19:42.406Z,16823.34
2022-10-25T06:22:10.477Z,16878.19
2022-10-25T06:24:38.444Z,16933.03
2022-10-25T06:27:06.454Z,16989.88
2022-10-25T06:29:34.438Z,17081.28
2022-10-25T06:32:02.509Z,17038.63
2022-10-25T06:34:30.598Z,17052.84
2022-10-25T06:36:59.919Z,17056.91
2022-10-25T06:39:27.943Z,17156.41
2022-10-25T06:41:55.889Z,17201.09
2022-10-25T06:44:23.886Z,17235.63
2022-10-25T06:47:15.903Z,17375.78
2022-10-25T06:49:39.886Z,17461.09
2022-10-25T06:52:09.306Z,17404.22
2022-10-25T06:54:37.270Z,17465.13
2022-10-25T06:57:05.270Z,17475.28
2022-10-25T06:59:33.228Z,17538.25
2022-10-25T07:02:01.363Z,17548.41
2022-10-25T07:04:32.406Z,17578.88
2022-10-25T07:07:00.543Z,17656.06
2022-10-25T07:09:30.389Z,17686.53
2022-10-25T07:11:58.511Z,17708.88
2022-10-25T07:14:26.487Z,17737.31
2022-10-25T07:16:54.553Z,17767.78
2022-10-25T07:19:23.906Z,17769.81
2022-10-25T07:21:52.789Z,17804.34
2022-10-25T07:24:20.803Z,17822.63
2022-10-25T07:26:50.120Z,17887.63
2022-10-25T07:29:18.103Z,17887.63
2022-10-25T07:31:46.255Z,17895.75
2022-10-25T07:34:16.403Z,17966.88
2022-10-25T07:36:45.382Z,18042.03
2022-10-25T07:39:13.936Z,18092.81
2022-10-25T07:41:41.991Z,18145.63
2022-10-25T07:44:16.116Z,18174.06
2022-10-25T07:46:45.557Z,18310.19
2022-10-25T07:49:13.798Z,18312.22
2022-10-25T07:51:41.769Z,18356.91
2022-10-25T07:54:10.587Z,18444.28
2022-10-25T07:56:38.602Z,18495.06
2022-10-25T07:59:13.648Z,18464.59
2022-10-25T08:01:43.057Z,18515.38
2022-10-25T08:04:11.163Z,18531.63
2022-10-25T08:06:39.126Z,18525.53
2022-10-25T08:09:14.533Z,18533.66
2022-10-25T08:11:48.434Z,18602.75
2022-10-25T08:14:16.613Z,18730.75
2022-10-25T08:16:45.955Z,18779.50
2022-10-25T08:19:13.981Z,18860.78
2022-10-25T08:21:41.967Z,18842.50
2022-10-25T08:24:10.590Z,18834.38
2022-10-25T08:26:38.562Z,18895.31
2022-10-25T08:29:06.589Z,18946.13
2022-10-25T08:31:34.653Z,19029.44
2022-10-25T08:34:04.911Z,19120.88
2022-10-25T08:36:32.943Z,19185.88
2022-10-25T08:39:01.182Z,19246.84
2022-10-25T08:41:44.609Z,19271.25
2022-10-25T08:44:30.098Z,19250.91
2022-10-25T08:47:04.275Z,19240.75
2022-10-25T08:49:47.849Z,19232.63
2022-10-25T08:52:27.342Z,19171.66
2022-10-25T08:55:03.206Z,19126.97
2022-10-25T08:57:40.588Z,19192.00
2022-10-25T09:00:17.413Z,19120.88
2022-10-25T09:02:53.358Z,19157.44
2022-10-25T09:05:39.085Z,19248.88
2022-10-25T09:08:46.092Z,19285.47
2022-10-25T09:11:36.243Z,19299.69
2022-10-25T09:14:13.791Z,19261.06
2022-10-25T09:16:50.925Z,19301.72
2022-10-25T09:19:28.127Z,19285.47
2022-10-25T09:22:02.416Z,19348.47
2022-10-25T09:24:36.553Z,19342.34
2022-10-25T09:27:09.878Z,19340.31
2022-10-25T09:29:42.564Z,19372.84
2022-10-25T09:32:20.402Z,19322.03
2022-10-25T09:34:49.125Z,19326.09
2022-10-25T09:37:26.407Z,19336.25
2022-10-25T09:40:02.111Z,19350.50
2022-10-25T09:42:38.506Z,19358.63
2022-10-25T09:45:19.350Z,19364.72
2022-10-25T09:47:55.597Z,19340.31
2022-10-25T09:50:30.795Z,19340.31
2022-10-25T09:53:13.168Z,19344.41
2022-10-25T09:55:53.086Z,19387.06
2022-10-25T09:58:25.169Z,19446.00
2022-10-25T10:00:56.681Z,19545.56
2022-10-25T10:03:31.577Z,19478.50
2022-10-25T10:06:03.901Z,19519.16
2022-10-25T10:08:36.588Z,19462.25
2022-10-25T10:11:06.279Z,19486.66
2022-10-25T10:13:43.934Z,19439.91
2022-10-25T10:16:22.963Z,19393.16
2022-10-25T10:18:51.187Z,19419.59
2022-10-25T10:21:22.144Z,19413.47
2022-10-25T10:23:55.411Z,19417.56
2022-10-25T10:26:31.172Z,19439.91
2022-10-25T10:29:17.487Z,19417.56
2022-10-25T10:31:49.421Z,19364.72
2022-10-25T10:34:31.567Z,19415.50
2022-10-25T10:37:15.218Z,19395.19
2022-10-25T10:39:54.677Z,19458.19
2022-10-25T10:42:24.774Z,19474.44
2022-10-25T10:45:15.685Z,19464.28
2022-10-25T10:47:46.846Z,19476.47
2022-10-25T10:50:26.446Z,19525.25
2022-10-25T10:53:00.840Z,19488.69
2022-10-25T10:55:33.640Z,19407.38
2022-10-25T10:58:08.074Z,19370.81
2022-10-25T11:00:36.319Z,19387.06
2022-10-25T11:03:04.467Z,19397.22
2022-10-25T11:05:35.092Z,19435.84
2022-10-25T11:08:18.385Z,19515.09
2022-10-25T11:10:47.696Z,19527.28
2022-10-25T11:13:18.528Z,19641.09
2022-10-25T11:16:33.994Z,19693.94
2022-10-25T11:19:31.807Z,19710.19
2022-10-25T11:22:49.187Z,19754.91
2022-10-25T11:25:34.638Z,19700.03
2022-10-25T11:28:31.823Z,19657.34
2022-10-25T11:31:11.428Z,19647.19
2022-10-25T11:33:57.487Z,19659.38
2022-10-25T11:36:59.262Z,19728.47
2022-10-25T11:39:48.566Z,19763.03
2022-10-25T11:42:41.647Z,19771.16
2022-10-25T11:45:44.981Z,19870.75
2022-10-25T11:48:34.917Z,19874.81
2022-10-25T11:51:15.338Z,19905.28
2022-10-25T11:54:14.032Z,19858.56
2022-10-25T11:56:56.552Z,19832.13
2022-10-25T11:59:38.309Z,19838.22
2022-10-25T12:02:35.419Z,19889.03
2022-10-25T12:05:22.727Z,19956.09
2022-10-25T12:08:03.047Z,19970.34
2022-10-25T12:10:38.285Z,19943.91
2022-10-25T12:13:17.163Z,19998.78
2022-10-25T12:15:48.985Z,20078.06
2022-10-25T12:18:26.177Z,20126.84
2022-10-25T12:20:56.069Z,20108.53
2022-10-25T12:23:28.882Z,20120.75
2022-10-25T12:26:05.909Z,20161.38
2022-10-25T12:28:45.553Z,20226.44
2022-10-25T12:31:20.039Z,20250.81
2022-10-25T12:33:56.536Z,20236.59
2022-10-25T12:36:36.142Z,20299.59
2022-10-25T12:39:15.227Z,20384.97
2022-10-25T12:41:49.831Z,20360.59
2022-10-25T12:44:46.754Z,20378.88
2022-10-25T12:47:55.147Z,20305.69
2022-10-25T12:50:45.466Z,20250.81
2022-10-25T12:54:04.061Z,20208.13
2022-10-25T12:56:53.129Z,20183.75
2022-10-25T12:59:42.854Z,20147.16
2022-10-25T13:02:55.308Z,20132.94
2022-10-25T13:06:15.240Z,20151.22
2022-10-25T13:08:44.678Z,20181.72
2022-10-25T13:11:13.522Z,20226.44
2022-10-25T13:13:51.667Z,20195.94
2022-10-25T13:16:28.880Z,20212.19
2022-10-25T13:19:53.195Z,20204.06
2022-10-25T13:22:37.787Z,20238.63
2022-10-25T13:25:39.151Z,20265.03
2022-10-25T13:28:34.054Z,20222.38
2022-10-25T13:31:47.000Z,20189.84
2022-10-25T13:34:41.112Z,20167.47
2022-10-25T13:37:45.684Z,20126.84
2022-10-25T13:40:27.193Z,20088.22
2022-10-25T13:43:06.521Z,20139.03
2022-10-25T13:45:42.830Z,20151.22
2022-10-25T13:48:26.634Z,20147.16
2022-10-25T13:50:57.778Z,20159.34
2022-10-25T13:53:35.988Z,20185.78
2022-10-25T13:56:08.816Z,20134.97
2022-10-25T13:58:48.721Z,20084.16
2022-10-25T14:01:55.625Z,20082.13
2022-10-25T14:04:39.969Z,20049.59
2022-10-25T14:07:47.721Z,20039.44
2022-10-25T14:10:27.309Z,20055.69
2022-10-25T14:13:09.036Z,19962.19
2022-10-25T14:15:48.669Z,19972.38
2022-10-25T14:18:22.075Z,19986.59
2022-10-25T14:20:56.516Z,19966.28
2022-10-25T14:23:30.135Z,19992.69
2022-10-25T14:26:01.919Z,19990.66
2022-10-25T14:28:32.252Z,19899.19
2022-10-25T14:31:02.492Z,19899.19
2022-10-25T14:33:36.620Z,19899.19
2022-10-25T14:36:28.371Z,19925.63
2022-10-25T14:38:59.911Z,19941.88
2022-10-25T14:41:31.901Z,19889.03
2022-10-25T14:44:00.473Z,19856.53
2022-10-25T14:46:31.032Z,19834.16
2022-10-25T14:49:01.219Z,19858.56
2022-10-25T14:51:32.886Z,19887.00
2022-10-25T14:54:06.792Z,19850.41
2022-10-25T14:56:41.663Z,19826.03
2022-10-25T14:59:26.322Z,19850.41
2022-10-25T15:01:58.080Z,19813.84
2022-10-25T15:04:36.131Z,19769.13
2022-10-25T15:07:04.914Z,19791.47
2022-10-25T15:09:49.229Z,19779.28
2022-10-25T15:12:22.769Z,19718.31
2022-10-25T15:14:50.923Z,19736.59
2022-10-25T15:17:30.692Z,19643.13
2022-10-25T15:20:01.272Z,19675.63
2022-10-25T15:22:32.743Z,19647.19
2022-10-25T15:25:00.881Z,19645.16
2022-10-25T15:27:44.599Z,19590.28
2022-10-25T15:30:38.322Z,19541.50
2022-10-25T15:33:11.639Z,19551.69
2022-10-25T15:35:50.588Z,19565.91
2022-10-25T15:38:19.500Z,19549.63
2022-10-25T15:40:49.100Z,19533.38
2022-10-25T15:43:18.416Z,19486.66
2022-10-25T15:45:46.850Z,19500.88
2022-10-25T15:48:18.704Z,19484.59
2022-10-25T15:50:51.246Z,19488.69
2022-10-25T15:53:19.680Z,19476.47
2022-10-25T15:55:49.064Z,19468.34
2022-10-25T15:58:18.947Z,19435.84
2022-10-25T16:00:47.932Z,19454.13
2022-10-25T16:03:22.831Z,19437.88
2022-10-25T16:05:52.399Z,19389.09
2022-10-25T16:08:20.420Z,19425.69
2022-10-25T16:10:48.416Z,19362.69
2022-10-25T16:13:30.462Z,19364.72
2022-10-25T16:15:59.042Z,19279.38
2022-10-25T16:18:29.428Z,19265.13
2022-10-25T16:20:59.074Z,19285.47
2022-10-25T16:23:28.184Z,19226.53
2022-10-25T16:25:57.189Z,19167.59
2022-10-25T16:30:59.310Z,19131.03
2022-10-25T16:33:27.227Z,19129.00
2022-10-25T16:35:55.158Z,19094.44
2022-10-25T16:38:23.059Z,19080.22
2022-10-25T16:40:51.107Z,19059.91
2022-10-25T16:43:19.005Z,19055.84
2022-10-25T16:45:48.290Z,19070.06
2022-10-25T16:48:16.626Z,18994.88
2022-10-25T16:50:44.767Z,19019.28
2022-10-25T16:53:14.846Z,19009.09
2022-10-25T16:55:43.098Z,18966.44
2022-10-25T16:58:11.472Z,18986.75
2022-10-25T17:00:39.412Z,18962.38
2022-10-25T17:03:09.989Z,18978.63
2022-10-25T17:05:39.733Z,18944.09
2022-10-25T17:08:07.638Z,18933.94
2022-10-25T17:10:36.038Z,18923.78
2022-10-25T17:13:05.353Z,18913.59
2022-10-25T17:15:33.536Z,18917.66
2022-10-25T17:18:01.466Z,18889.22
2022-10-25T17:20:30.744Z,18883.13
2022-10-25T17:22:58.658Z,18860.78
2022-10-25T17:25:26.600Z,18814.03
2022-10-25T17:27:55.211Z,18842.50
2022-10-25T17:30:23.165Z,18828.28
2022-10-25T17:32:51.546Z,18773.41
2022-10-25T17:35:27.051Z,18767.31
2022-10-25T17:37:58.795Z,18753.09
2022-10-25T17:40:26.813Z,18767.31
2022-10-25T17:42:55.794Z,18789.66
2022-10-25T17:45:23.741Z,18734.81
2022-10-25T17:47:51.697Z,18718.56
2022-10-25T17:50:22.113Z,18686.03
2022-10-25T17:52:51.644Z,18661.66
2022-10-25T17:55:20.984Z,18706.38
2022-10-25T17:57:50.032Z,18671.81
2022-10-25T18:00:18.676Z,18612.91
2022-10-25T18:02:50.517Z,18606.81
2022-10-25T18:05:20.879Z,18592.59
2022-10-25T18:07:50.121Z,18586.50
2022-10-25T18:10:20.517Z,18580.41
2022-10-25T18:12:49.193Z,18553.97
2022-10-25T18:15:17.659Z,18551.94
2022-10-25T18:17:46.758Z,18519.44
2022-10-25T18:20:15.538Z,18523.50
2022-10-25T18:22:43.588Z,18497.09
2022-10-25T18:25:12.449Z,18478.81
2022-10-25T18:27:41.750Z,18456.47
2022-10-25T18:30:12.020Z,18428.03
2022-10-25T18:32:39.967Z,18413.78
2022-10-25T18:35:08.906Z,18385.34
2022-10-25T18:37:36.803Z,18403.63
2022-10-25T18:40:05.913Z,18360.97
2022-10-25T18:42:35.627Z,18340.66
2022-10-25T18:45:06.634Z,18338.63
2022-10-25T18:47:34.938Z,18295.97
2022-10-25T18:50:02.912Z,18287.84
2022-10-25T18:52:30.872Z,18289.88
2022-10-25T18:54:58.809Z,18237.06
2022-10-25T18:57:26.739Z,18204.53
2022-10-25T18:59:54.698Z,18176.09
2022-10-25T19:02:24.104Z,18123.28
2022-10-25T19:04:52.129Z,18111.09
2022-10-25T19:07:20.071Z,18123.28
2022-10-25T19:09:48.052Z,18070.47
2022-10-25T19:12:16.056Z,18127.34
2022-10-25T19:14:44.010Z,18068.44
2022-10-25T19:17:12.112Z,18029.84
2022-10-25T19:19:41.441Z,18001.41
2022-10-25T19:22:09.379Z,17999.38
2022-10-25T19:24:38.266Z,17956.72
2022-10-25T19:27:06.244Z,17942.50
2022-10-25T19:29:34.189Z,17918.09
2022-10-25T19:32:02.191Z,17879.50
2022-10-25T19:34:30.162Z,17861.22
2022-10-25T19:37:04.129Z,17816.53
2022-10-25T19:39:32.312Z,17806.38
2022-10-25T19:42:00.319Z,17747.47
2022-10-25T19:44:28.340Z,17735.28
2022-10-25T19:46:56.323Z,17739.34
2022-10-25T19:49:24.316Z,17717.00
2022-10-25T19:51:52.326Z,17712.94
2022-10-25T19:54:21.679Z,17664.19
2022-10-25T19:56:50.924Z,17658.09
2022-10-25T19:59:19.131Z,17635.75
2022-10-25T20:01:48.772Z,17643.88
2022-10-25T20:04:16.832Z,17623.56
2022-10-25T20:06:45.029Z,17633.72
2022-10-25T20:09:13.006Z,17568.72
2022-10-25T20:11:42.442Z,17580.91
2022-10-25T20:14:10.399Z,17554.50
2022-10-25T20:16:38.695Z,17501.69
2022-10-25T20:19:06.695Z,17473.25
2022-10-25T20:21:37.500Z,17473.25
2022-10-25T20:24:09.688Z,17450.94
2022-10-25T20:26:40.807Z,17448.91
2022-10-25T20:29:20.338Z,17444.84
2022-10-25T20:31:50.886Z,17473.25
2022-10-25T20:34:19.796Z,17477.31
2022-10-25T20:36:47.883Z,17477.31
2022-10-25T20:39:16.365Z,17469.19
2022-10-25T20:41:44.483Z,17483.41
2022-10-25T20:44:14.645Z,17495.59
2022-10-25T20:46:42.848Z,17530.13
2022-10-25T20:49:10.832Z,17515.91
2022-10-25T20:51:38.921Z,17475.28
2022-10-25T20:54:09.453Z,17515.91
2022-10-25T20:56:39.286Z,17513.88
2022-10-25T20:59:07.647Z,17540.28
2022-10-25T21:01:37.342Z,17495.59
2022-10-25T21:04:06.100Z,17467.16
2022-10-25T21:06:34.086Z,17495.59
2022-10-25T21:09:02.166Z,17450.94
2022-10-25T21:11:30.173Z,17467.16
2022-10-25T21:13:58.203Z,17469.19
2022-10-25T21:16:26.218Z,17446.88
2022-10-25T21:18:55.525Z,17457.03
2022-10-25T21:21:23.489Z,17412.34
2022-10-25T21:23:56.464Z,17404.22
2022-10-25T21:26:24.778Z,17373.75
2022-10-25T21:28:52.735Z,17363.59
2022-10-25T21:31:20.765Z,17375.78
2022-10-25T21:33:51.284Z,17347.34
2022-10-25T21:36:22.022Z,17322.97
2022-10-25T21:38:50.148Z,17306.72
2022-10-25T21:41:26.428Z,17294.53
2022-10-25T21:43:55.843Z,17282.34
2022-10-25T21:46:26.637Z,17253.91
2022-10-25T21:48:55.867Z,17223.44
2022-10-25T21:51:25.826Z,17195.00
2022-10-25T21:53:54.370Z,17201.09
2022-10-25T21:56:30.571Z,17192.97
2022-10-25T21:59:01.196Z,17192.97
2022-10-25T22:01:31.441Z,17148.31
2022-10-25T22:03:59.963Z,17128.00
2022-10-25T22:06:30.378Z,17140.19
2022-10-25T22:08:58.430Z,17105.66
2022-10-25T22:11:29.123Z,17103.63
2022-10-25T22:14:00.007Z,17111.75
2022-10-25T22:16:29.364Z,17054.88
2022-10-25T22:19:00.374Z,17014.25
2022-10-25T22:21:32.893Z,17044.72
2022-10-25T22:24:00.965Z,17034.56
2022-10-25T22:26:29.287Z,17010.19
2022-10-25T22:29:00.218Z,17006.13
2022-10-25T22:31:30.410Z,16995.97
2022-10-25T22:34:00.601Z,16983.78
2022-10-25T22:36:32.385Z,17008.16
2022-10-25T22:39:00.761Z,16969.56
2022-10-25T22:41:30.725Z,16998.00
2022-10-25T22:43:59.584Z,17008.16
2022-10-25T22:46:30.460Z,16989.88
2022-10-25T22:49:00.990Z,16985.81
2022-10-25T22:51:30.326Z,16953.34
2022-10-25T22:53:58.320Z,16963.47
2022-10-25T22:56:28.528Z,16949.28
2022-10-25T22:58:59.702Z,16989.88
2022-10-25T23:01:30.436Z,16985.81
2022-10-25T23:04:00.444Z,16973.63
2022-10-25T23:06:33.282Z,16983.78
2022-10-25T23:09:04.670Z,16935.06
2022-10-25T23:11:35.582Z,16935.06
2022-10-25T23:14:05.171Z,16892.41
2022-10-25T23:16:33.191Z,16902.56
2022-10-25T23:19:01.515Z,16922.88
2022-10-25T23:21:31.737Z,16894.44
2022-10-25T23:24:01.219Z,16876.16
2022-10-25T23:26:32.033Z,16880.22
2022-10-25T23:29:01.804Z,16888.34
2022-10-25T23:31:31.424Z,16918.81
2022-10-25T23:34:01.850Z,16918.81
2022-10-25T23:36:37.238Z,16876.16
2022-10-25T23:39:07.260Z,16876.16
2022-10-25T23:41:35.472Z,16868.03
2022-10-25T23:44:03.662Z,16890.38
2022-10-25T23:46:31.791Z,16888.34
2022-10-25T23:48:59.957Z,16908.66
2022-10-25T23:51:27.923Z,16916.78
2022-10-25T23:53:57.225Z,16918.81
2022-10-25T23:56:25.270Z,16880.22
2022-10-25T23:58:53.980Z,16880.22
